Flight Track Log - Related Links

Times and Time Zones

All times are in EDT time to prevent confusion due to time zone crossing. See the SWA2236 flight status page for this flight to view local times or setup timezone preferences in your user account.

Time Position Orientation Groundspeed Altitude Reporting Facility
EDT Latitude Longitude Course Direction KTS MPH feet Rate Location/Type
Mon 08:11:58 AM 42.2017 -83.3583 228° Southwest 155 178 1,400  Level Cleveland Center
Mon 08:12:58 AM 42.1692 -83.4072 228° Southwest 201 231 4,200 2,926 Climbing Cleveland Center
Mon 08:13:59 AM 42.1336 -83.4897 240° Southwest 267 307 7,300 3,246 Climbing Cleveland Center
Mon 08:15:00 AM 42.1625 -83.5806 293° West 286 329 10,800 2,643 Climbing Cleveland Center
Mon 08:15:23 AM 42.1664 -83.6006 285° West 314 361 11,000 1,590 Climbing Cleveland Center
Mon 08:16:23 AM 42.2089 -83.7203 296° West 327 376 13,000 1,537 Climbing Cleveland Center
Mon 08:17:24 AM 42.2286 -83.8361 283° West 334 384 14,100 2,100 Climbing Cleveland Center
Mon 08:18:23 AM 42.2628 -83.9558 291° West 334 384 17,200 2,900 Climbing Cleveland Center
Mon 08:19:24 AM 42.2506 -84.0814 263° West 334 384 19,900 2,350 Climbing Cleveland Center
Mon 08:20:23 AM 42.1972 -84.1906 237° Southwest 329 379 21,900 1,059 Climbing Cleveland Center
Mon 08:21:23 AM 42.1458 -84.2969 237° Southwest 336 387 22,000 50 Climbing Cleveland Center
Mon 08:22:24 AM 42.1125 -84.4211 250° West 330 380 22,000  Level Cleveland Center
Mon 08:23:23 AM 42.1064 -84.5439 266° West 323 372 22,000  Level Cleveland Center
Mon 08:24:45 AM 42.0906 -84.6892 262° West 335 386 22,000  Level Chicago Center
Mon 08:25:47 AM 42.0206 -84.8103 232° Southwest 339 390 22,000  Level Chicago Center
Mon 08:26:49 AM 41.9631 -84.9031 230° Southwest 341 392 22,000  Level Chicago Center
Mon 08:27:50 AM 41.9017 -85.0025 230° Southwest 345 397 22,000  Level Chicago Center
Mon 08:28:52 AM 41.8392 -85.1011 230° Southwest 346 398 22,000  Level Chicago Center
Mon 08:29:54 AM 41.7650 -85.2197 230° Southwest 348 400 22,000  Level Chicago Center
Mon 08:30:56 AM 41.7036 -85.3178 230° Southwest 346 398 22,000  Level Chicago Center
Mon 08:31:59 AM 41.6367 -85.4211 229° Southwest 343 395 22,000  Level Chicago Center
Mon 08:33:00 AM 41.5975 -85.5283 244° Southwest 331 381 22,000 -195 Level Chicago Center
Mon 08:34:02 AM 41.5781 -85.6608 259° West 340 391 21,600 -774 Descending Chicago Center
Mon 08:35:04 AM 41.5592 -85.7950 259° West 364 419 20,400 -1,548 Descending Chicago Center
Mon 08:36:06 AM 41.5397 -85.9256 259° West 359 413 18,400 -1,887 Descending Chicago Center
Mon 08:37:08 AM 41.5228 -86.0533 260° West 352 405 16,500 -1,742 Descending Chicago Center
Mon 08:38:10 AM 41.5231 -86.1783 270° West 336 387 14,800 -1,984 Descending Chicago Center
Mon 08:39:12 AM 41.5236 -86.3142 270° West 360 414 12,400 -2,032 Descending Chicago Center
Mon 08:40:14 AM 41.5233 -86.4694 270° West 349 402 10,600 -1,113 Descending Chicago Center
Mon 08:41:16 AM 41.5206 -86.5883 268° West 325 374 10,100 -242 Descending Chicago Center
Mon 08:42:18 AM 41.5208 -86.7228 270° West 330 380 10,100  Level Chicago Center
Mon 08:43:20 AM 41.5189 -86.8431 269° West 325 374 10,100 -290 Level Chicago Center
Mon 08:44:22 AM 41.5172 -86.9461 269° West 284 327 9,500 -1,065 Descending Chicago Center
Mon 08:45:24 AM 41.5233 -87.0439 275° West 269 310 7,900 -1,548 Descending Chicago Center
Mon 08:46:26 AM 41.5500 -87.1386 291° West 275 316 6,300 -919 Descending Chicago Center
Mon 08:47:28 AM 41.5728 -87.2303 288° West 267 307 6,000 -145 Descending Chicago Center
Mon 08:48:30 AM 41.6006 -87.3403 289° West 263 303 6,000  Level Chicago Center
Mon 08:49:32 AM 41.6236 -87.4319 289° West 263 303 6,000 -532 Level Chicago Center
Mon 08:50:34 AM 41.6456 -87.5175 289° West 254 292 4,900 -1,113 Descending Chicago Center
Mon 08:51:36 AM 41.6672 -87.5919 291° West 236 272 3,700 -1,113 Descending Chicago Center
Mon 08:52:38 AM 41.7089 -87.6467 316° Northwest 220 253 2,600 -871 Descending Chicago Center
Mon 08:53:40 AM 41.7669 -87.6719 342° North 207 238 1,900 -488 Descending Chicago Center
Mon 08:54:41 AM 41.8069 -87.6906 341° North 177 204 1,600 -439 Descending Chicago Center
Mon 08:55:43 AM 41.8044 -87.7303 265° West 152 175 1,000 1,608 Descending Chicago Center
Mon 08:57:00 AM 41.7833 -87.7500 334° Northwest  Level FlightAware Approximate
Mon 09:07:11 AM 26.5660 -80.8120 334° Northwest 418 481 21,700  Level FlightAware ADS-B
Mon 09:07:46 AM 26.6250 -80.8600 324° Northwest 422 486 22,600 1,652 Climbing FlightAware ADS-B
Mon 09:08:20 AM 26.6800 -80.9060 323° Northwest 426 490 23,600 1,714 Climbing FlightAware ADS-B
Mon 09:08:56 AM 26.7360 -80.9530 323° Northwest 429 494 24,600 1,543 Climbing FlightAware ADS-B
Mon 09:09:30 AM 26.7910 -81.0000 323° Northwest 439 505 25,400 1,478 Climbing FlightAware ADS-B
Mon 09:10:05 AM 26.8480 -81.0480 323° Northwest 442 509 26,300 1,371 Climbing FlightAware ADS-B
Mon 09:10:40 AM 26.9040 -81.0940 324° Northwest 446 513 27,000 1,182 Climbing FlightAware ADS-B
Mon 09:11:11 AM 26.9550 -81.1370 323° Northwest 444 511 27,600 1,138 Climbing FlightAware ADS-B
Mon 09:11:38 AM 27.0050 -81.1790 323° Northwest 457 526 28,100 1,059 Climbing FlightAware ADS-B
Mon 09:12:36 AM 27.1050 -81.2630 323° Northwest 467 537 29,100 1,200 Climbing FlightAware ADS-B
Mon 09:13:13 AM 27.1690 -81.3170 323° Northwest 464 534 30,000 1,417 Climbing FlightAware ADS-B
Mon 09:13:48 AM 27.2290 -81.3680 323° Northwest 463 533 30,800 1,391 Climbing FlightAware ADS-B
Mon 09:14:22 AM 27.2870 -81.4170 323° Northwest 461 531 31,600 1,352 Climbing FlightAware ADS-B
Mon 09:14:59 AM 27.3500 -81.4700 323° Northwest 459 528 32,400 1,254 Climbing FlightAware ADS-B
Mon 09:15:29 AM 27.4020 -81.5150 322° Northwest 458 527 33,000 1,235 Climbing FlightAware ADS-B
Mon 09:16:07 AM 27.4650 -81.5680 323° Northwest 455 524 33,800 1,250 Climbing FlightAware ADS-B
Mon 09:16:41 AM 27.5230 -81.6170 323° Northwest 451 519 34,500 1,183 Climbing FlightAware ADS-B
Mon 09:17:18 AM 27.5820 -81.6680 323° Northwest 448 516 35,200 957 Climbing FlightAware ADS-B
Mon 09:17:50 AM 27.6350 -81.7130 323° Northwest 447 514 35,600 696 Climbing FlightAware ADS-B
Mon 09:18:27 AM 27.6980 -81.7670 323° Northwest 449 517 36,000 329 Climbing FlightAware ADS-B
Mon 09:19:03 AM 27.7580 -81.8180 323° Northwest 449 517 36,000  Level FlightAware ADS-B
Mon 09:19:35 AM 27.8100 -81.8630 323° Northwest 448 516 36,000  Level FlightAware ADS-B
Mon 09:20:02 AM 27.8550 -81.9010 323° Northwest 447 514 36,000  Level FlightAware ADS-B
Mon 09:20:38 AM 27.9140 -81.9520 323° Northwest 446 513 36,000  Level FlightAware ADS-B
Mon 09:21:16 AM 27.9750 -82.0040 323° Northwest 446 513 36,000  Level FlightAware ADS-B
Mon 09:21:51 AM 28.0330 -82.0550 322° Northwest 444 511 36,000  Level FlightAware ADS-B
Mon 09:22:23 AM 28.0870 -82.1030 322° Northwest 444 511 36,000  Level FlightAware ADS-B
Mon 09:23:01 AM 28.1450 -82.1550 322° Northwest 442 509 36,000  Level FlightAware ADS-B
Mon 09:23:37 AM 28.2030 -82.2070 322° Northwest 441 507 36,000  Level FlightAware ADS-B
Mon 09:24:12 AM 28.2600 -82.2580 322° Northwest 439 505 36,000  Level FlightAware ADS-B
Mon 09:24:46 AM 28.3160 -82.3080 322° Northwest 438 504 36,000  Level FlightAware ADS-B
Mon 09:25:21 AM 28.3700 -82.3560 322° Northwest 435 501 36,000  Level FlightAware ADS-B
Mon 09:25:54 AM 28.4230 -82.4040 321° Northwest 433 498 36,000  Level FlightAware ADS-B
Mon 09:26:30 AM 28.4800 -82.4550 322° Northwest 432 497 36,000  Level FlightAware ADS-B
Mon 09:27:07 AM 28.5350 -82.5110 318° Northwest 433 498 36,000  Level FlightAware ADS-B
Mon 09:27:40 AM 28.5830 -82.5610 318° Northwest 435 501 36,000  Level FlightAware ADS-B
Mon 09:28:12 AM 28.6310 -82.6120 317° Northwest 437 503 36,000  Level FlightAware ADS-B
Mon 09:28:51 AM 28.6870 -82.6720 317° Northwest 439 505 36,000  Level FlightAware ADS-B
Mon 09:29:24 AM 28.7370 -82.7250 317° Northwest 439 505 36,000  Level FlightAware ADS-B
Mon 09:30:00 AM 28.7900 -82.7820 317° Northwest 438 504 36,000  Level FlightAware ADS-B
Mon 09:30:35 AM 28.8410 -82.8360 317° Northwest 437 503 36,000  Level FlightAware ADS-B
Mon 09:31:10 AM 28.8940 -82.8920 317° Northwest 437 503 36,000  Level FlightAware ADS-B
Mon 09:31:44 AM 28.9440 -82.9460 317° Northwest 437 503 36,000  Level FlightAware ADS-B
Mon 09:32:21 AM 28.9990 -83.0040 317° Northwest 438 504 36,000  Level FlightAware ADS-B
Mon 09:32:56 AM 29.0510 -83.0600 317° Northwest 437 503 36,000  Level FlightAware ADS-B
Mon 09:33:33 AM 29.1050 -83.1180 317° Northwest 437 503 36,000  Level FlightAware ADS-B
Mon 09:34:03 AM 29.1500 -83.1660 317° Northwest 437 503 36,000  Level FlightAware ADS-B
Mon 09:34:40 AM 29.2030 -83.2230 317° Northwest 437 503 36,000  Level FlightAware ADS-B
Mon 09:35:12 AM 29.2520 -83.2760 317° Northwest 438 504 36,000  Level FlightAware ADS-B
Mon 09:35:52 AM 29.3110 -83.3390 317° Northwest 439 505 36,000  Level FlightAware ADS-B
Mon 09:36:26 AM 29.3620 -83.3940 317° Northwest 439 505 36,000  Level FlightAware ADS-B
Mon 09:37:01 AM 29.4120 -83.4490 316° Northwest 441 507 36,000  Level FlightAware ADS-B
Mon 09:37:37 AM 29.4670 -83.5080 317° Northwest 441 507 36,000  Level FlightAware ADS-B
Mon 09:38:12 AM 29.5180 -83.5630 317° Northwest 441 507 36,000  Level FlightAware ADS-B
Mon 09:38:47 AM 29.5690 -83.6190 316° Northwest 442 509 36,000  Level FlightAware ADS-B
Mon 09:39:23 AM 29.6230 -83.6770 317° Northwest 442 509 36,000  Level FlightAware ADS-B
Mon 09:39:56 AM 29.6700 -83.7290 316° Northwest 442 509 36,000  Level FlightAware ADS-B

Login

Don't have an account? Register now (free) for customized features, flight alerts, and more!